Time;durP1;ratioP1;P1;durP2;ratioP2;P2;SDS_P1;SDS_P2;PMS_P1;PMS_P2;Temp;Humidity;BMP_temperature;BMP_pressure;BME280_temperature;BME280_humidity;BME280_pressure;Samples;Min_cycle;Max_cycle;Signal;HPM_P1;HPM_P2
2021/06/06 00:01:25;;;;;;;9.80;6.43;;;11.70;99.90;;;;;;5085916;28;20227;-73
2021/06/06 00:04:14;;;;;;;6.77;4.90;;;11.70;99.90;;;;;;5075723;28;20202;-73
2021/06/06 00:07:01;;;;;;;9.30;5.50;;;11.70;99.90;;;;;;5084983;28;20225;-72
2021/06/06 00:09:48;;;;;;;9.47;5.23;;;11.70;99.90;;;;;;5075024;28;20216;-73
2021/06/06 00:12:37;;;;;;;8.43;6.10;;;11.60;99.90;;;;;;5074946;28;20197;-72
2021/06/06 00:15:24;;;;;;;11.20;6.10;;;11.60;99.90;;;;;;5064914;28;20247;-73
2021/06/06 00:18:11;;;;;;;10.50;5.57;;;11.50;99.90;;;;;;5083900;28;20193;-72
2021/06/06 00:20:59;;;;;;;6.83;5.63;;;11.50;99.90;;;;;;5074015;28;20737;-73
2021/06/06 00:23:46;;;;;;;8.50;5.93;;;11.50;99.90;;;;;;5060566;28;20192;-72
2021/06/06 00:26:36;;;;;;;9.03;6.80;;;11.40;99.90;;;;;;5047533;28;20205;-72
2021/06/06 00:29:24;;;;;;;8.93;6.20;;;11.40;99.90;;;;;;5068085;28;20651;-73
2021/06/06 00:32:11;;;;;;;9.23;5.80;;;11.40;99.90;;;;;;5053815;28;20610;-72
2021/06/06 00:34:59;;;;;;;8.50;5.87;;;11.40;99.90;;;;;;5053228;28;20668;-72
2021/06/06 00:37:46;;;;;;;10.50;5.40;;;11.40;99.90;;;;;;5052884;28;20196;-73
2021/06/06 00:40:36;;;;;;;14.27;5.37;;;11.40;99.90;;;;;;5054109;28;20279;-72
2021/06/06 00:43:23;;;;;;;9.80;5.93;;;11.30;99.90;;;;;;5052631;28;20196;-73
2021/06/06 00:46:12;;;;;;;7.57;5.60;;;11.30;99.90;;;;;;5053461;28;20225;-72
2021/06/06 00:49:00;;;;;;;8.63;6.17;;;11.30;99.90;;;;;;5053409;28;20207;-73
2021/06/06 00:51:48;;;;;;;8.00;6.17;;;11.20;99.90;;;;;;5057750;28;20206;-73
2021/06/06 00:54:37;;;;;;;8.57;5.80;;;11.20;99.90;;;;;;5069468;28;20662;-72
2021/06/06 00:57:25;;;;;;;9.13;6.43;;;11.20;99.90;;;;;;5053945;28;20201;-73
2021/06/06 01:00:15;;;;;;;9.13;6.03;;;11.20;99.90;;;;;;5059862;28;20659;-73
2021/06/06 01:03:04;;;;;;;8.10;5.53;;;11.20;99.90;;;;;;5066301;28;20189;-72
2021/06/06 01:05:53;;;;;;;7.23;5.63;;;11.10;99.90;;;;;;5048453;28;20228;-72
2021/06/06 01:08:40;;;;;;;8.10;5.57;;;11.10;99.90;;;;;;5053494;28;20217;-72
2021/06/06 01:11:30;;;;;;;12.17;5.87;;;11.10;99.90;;;;;;5052029;28;20235;-72
2021/06/06 01:14:19;;;;;;;9.37;5.40;;;11.10;99.90;;;;;;5054041;28;20202;-72
2021/06/06 01:17:08;;;;;;;10.70;5.50;;;11.10;99.90;;;;;;5067801;28;20189;-72
2021/06/06 01:19:59;;;;;;;7.83;5.27;;;11.10;99.90;;;;;;5045021;28;20250;-72
2021/06/06 01:22:51;;;;;;;9.30;6.03;;;11.10;99.90;;;;;;5065048;28;20228;-72
2021/06/06 01:25:42;;;;;;;7.23;5.67;;;11.10;99.90;;;;;;5072818;28;20208;-72
2021/06/06 01:28:32;;;;;;;11.10;6.53;;;11.20;99.90;;;;;;5073736;28;20216;-72
2021/06/06 01:31:19;;;;;;;8.27;6.00;;;11.30;99.90;;;;;;5072497;28;20211;-71
2021/06/06 01:34:06;;;;;;;11.57;7.17;;;11.30;99.90;;;;;;5084204;28;20566;-72
2021/06/06 01:36:55;;;;;;;123.30;51.67;;;11.30;99.90;;;;;;5093025;28;20221;-72
2021/06/06 01:39:45;;;;;;;44.83;22.00;;;11.20;99.90;;;;;;5066079;28;20203;-72
2021/06/06 01:42:35;;;;;;;35.03;18.30;;;11.20;99.90;;;;;;5090499;28;20222;-72
2021/06/06 01:45:24;;;;;;;23.47;12.80;;;11.20;99.90;;;;;;5072405;28;20192;-72
2021/06/06 01:48:12;;;;;;;24.93;13.47;;;11.10;99.90;;;;;;5081656;28;20216;-72
2021/06/06 01:51:02;;;;;;;19.50;11.73;;;11.10;99.90;;;;;;5082049;28;20224;-72
2021/06/06 01:53:49;;;;;;;18.37;9.23;;;11.10;99.90;;;;;;5090505;28;20219;-72
2021/06/06 01:56:38;;;;;;;14.47;9.10;;;11.00;99.90;;;;;;5091728;28;20203;-72
2021/06/06 01:59:28;;;;;;;14.10;7.73;;;11.00;99.90;;;;;;5089591;28;20719;-72
2021/06/06 02:02:15;;;;;;;9.13;7.10;;;11.00;99.90;;;;;;5085730;28;20301;-72
2021/06/06 02:05:02;;;;;;;11.57;8.00;;;10.90;99.90;;;;;;5072402;28;20586;-72
2021/06/06 02:07:50;;;;;;;18.73;10.00;;;10.90;99.90;;;;;;5086343;28;20207;-72
2021/06/06 02:10:38;;;;;;;16.93;10.57;;;10.90;99.90;;;;;;5091802;28;20654;-72
2021/06/06 02:13:26;;;;;;;15.70;9.33;;;10.80;99.90;;;;;;5084457;28;20208;-72
2021/06/06 02:16:16;;;;;;;11.97;8.43;;;10.80;99.90;;;;;;5082835;28;20200;-72
2021/06/06 02:19:03;;;;;;;15.97;8.17;;;10.80;99.90;;;;;;5071768;28;20724;-72
2021/06/06 02:21:51;;;;;;;14.33;9.10;;;10.80;99.90;;;;;;5082053;28;20231;-72
2021/06/06 02:24:38;;;;;;;16.00;8.40;;;10.90;99.90;;;;;;5077031;28;20578;-72
2021/06/06 02:27:26;;;;;;;13.13;7.63;;;10.90;99.90;;;;;;5080416;28;20685;-73
2021/06/06 02:30:15;;;;;;;11.37;7.77;;;10.90;99.90;;;;;;5077973;28;20204;-73
2021/06/06 02:33:07;;;;;;;13.90;8.40;;;10.80;99.90;;;;;;5072320;28;20662;-72
2021/06/06 02:35:56;;;;;;;10.00;7.20;;;10.80;99.90;;;;;;5073944;28;20283;-72
2021/06/06 02:38:46;;;;;;;10.97;7.37;;;10.80;99.90;;;;;;5074218;28;20242;-73
2021/06/06 02:41:37;;;;;;;10.43;7.43;;;10.80;99.90;;;;;;5075792;28;20201;-72
2021/06/06 02:44:26;;;;;;;9.50;6.80;;;10.80;99.90;;;;;;5072573;28;20524;-73
2021/06/06 02:47:13;;;;;;;12.77;6.77;;;10.80;99.90;;;;;;5084168;28;20221;-72
2021/06/06 02:50:05;;;;;;;10.27;6.63;;;10.80;99.90;;;;;;5081705;28;20192;-73
2021/06/06 02:52:54;;;;;;;12.23;6.40;;;10.80;99.90;;;;;;5069768;28;20534;-73
2021/06/06 02:55:43;;;;;;;12.63;6.60;;;10.80;99.90;;;;;;5091394;28;20211;-73
2021/06/06 02:58:32;;;;;;;9.30;6.53;;;10.90;99.90;;;;;;5090991;28;20203;-73
2021/06/06 03:01:20;;;;;;;12.10;6.73;;;10.90;99.90;;;;;;5090707;28;20210;-72
2021/06/06 03:04:09;;;;;;;9.13;6.57;;;10.90;99.90;;;;;;5074563;28;20201;-73
2021/06/06 03:06:59;;;;;;;10.00;6.70;;;10.90;99.90;;;;;;5076706;28;20203;-72
2021/06/06 03:09:46;;;;;;;10.20;6.90;;;10.90;99.90;;;;;;5083077;28;20192;-73
2021/06/06 03:12:33;;;;;;;10.70;7.00;;;11.00;99.90;;;;;;5068664;28;20224;-73
2021/06/06 03:15:20;;;;;;;9.20;6.70;;;11.00;99.90;;;;;;5083108;28;20650;-73
2021/06/06 03:18:07;;;;;;;9.87;6.83;;;11.10;99.90;;;;;;5090865;28;20211;-73
2021/06/06 03:20:56;;;;;;;11.87;6.87;;;11.10;99.90;;;;;;5084415;28;20261;-72
2021/06/06 03:23:45;;;;;;;13.00;6.90;;;11.30;99.90;;;;;;5083830;28;20270;-73
2021/06/06 03:26:32;;;;;;;9.50;7.13;;;11.30;99.90;;;;;;5093549;28;20264;-72
2021/06/06 03:29:21;;;;;;;10.20;7.13;;;11.40;99.90;;;;;;5075795;28;20302;-72
2021/06/06 03:32:10;;;;;;;11.27;7.00;;;11.50;99.90;;;;;;5067607;28;20646;-72
2021/06/06 03:34:57;;;;;;;13.90;7.10;;;11.50;99.90;;;;;;5072676;28;20655;-73
2021/06/06 03:37:45;;;;;;;9.67;7.13;;;11.60;99.90;;;;;;5072489;28;20246;-72
2021/06/06 03:40:35;;;;;;;8.50;6.93;;;11.60;99.90;;;;;;5094608;28;20203;-73
2021/06/06 03:43:23;;;;;;;28.30;13.93;;;11.70;99.90;;;;;;5093503;28;20212;-73
2021/06/06 03:46:10;;;;;;;25.43;15.37;;;11.80;99.90;;;;;;5084979;28;20740;-73
2021/06/06 03:48:57;;;;;;;18.83;12.97;;;11.90;99.90;;;;;;5080156;28;20295;-73
2021/06/06 03:51:45;;;;;;;14.40;9.30;;;12.10;99.90;;;;;;5066188;28;20754;-73
2021/06/06 03:54:32;;;;;;;15.13;9.20;;;12.20;99.90;;;;;;5074594;28;20234;-73
2021/06/06 03:57:21;;;;;;;12.87;8.40;;;12.20;99.90;;;;;;5085873;28;20200;-73
2021/06/06 04:00:10;;;;;;;11.87;8.77;;;12.40;99.90;;;;;;5086288;28;20206;-73
2021/06/06 04:02:59;;;;;;;17.90;8.80;;;12.50;99.90;;;;;;5081898;28;20207;-73
2021/06/06 04:05:46;;;;;;;12.70;9.30;;;12.60;99.90;;;;;;5082855;28;20192;-73
2021/06/06 04:08:34;;;;;;;17.53;10.87;;;12.70;99.90;;;;;;5093073;28;20646;-73
2021/06/06 04:11:21;;;;;;;15.40;9.60;;;12.90;99.90;;;;;;5086557;28;20549;-73
2021/06/06 04:14:09;;;;;;;16.40;10.00;;;13.00;99.90;;;;;;5073586;28;20215;-73
2021/06/06 04:16:56;;;;;;;15.23;9.70;;;13.10;99.90;;;;;;5091970;28;20639;-73
2021/06/06 04:19:43;;;;;;;16.30;9.90;;;13.20;99.90;;;;;;5082553;28;20676;-73
2021/06/06 04:22:30;;;;;;;12.60;9.17;;;13.40;99.90;;;;;;5086742;28;20316;-73
2021/06/06 04:25:17;;;;;;;14.03;8.93;;;13.50;99.90;;;;;;5086296;28;20329;-73
2021/06/06 04:28:05;;;;;;;11.63;8.00;;;13.60;99.90;;;;;;5083820;28;20282;-74
2021/06/06 04:30:54;;;;;;;10.53;8.27;;;13.70;99.90;;;;;;5093051;28;20194;-74
2021/06/06 04:33:41;;;;;;;11.27;7.87;;;13.80;99.90;;;;;;5081003;28;20246;-73
2021/06/06 04:36:28;;;;;;;15.27;8.00;;;14.00;99.90;;;;;;5083300;28;20200;-74
2021/06/06 04:39:15;;;;;;;11.00;7.60;;;14.10;99.90;;;;;;5074384;28;20199;-73
2021/06/06 04:42:03;;;;;;;11.97;8.20;;;14.30;99.90;;;;;;5081972;28;20220;-73
2021/06/06 04:44:51;;;;;;;12.17;7.60;;;14.40;99.90;;;;;;5066748;28;20676;-74
2021/06/06 04:47:39;;;;;;;11.07;8.10;;;14.60;99.90;;;;;;5074212;28;20216;-73
2021/06/06 04:50:26;;;;;;;10.00;7.53;;;14.70;99.90;;;;;;5085120;28;20200;-73
2021/06/06 04:53:14;;;;;;;12.30;8.30;;;14.90;99.90;;;;;;5091923;28;20259;-73
2021/06/06 04:56:01;;;;;;;9.83;7.80;;;15.10;99.90;;;;;;5090466;28;20208;-73
2021/06/06 04:58:48;;;;;;;11.00;7.30;;;15.20;99.90;;;;;;5074242;28;20200;-73
2021/06/06 05:01:35;;;;;;;9.97;7.83;;;15.40;99.90;;;;;;5092627;28;20284;-73
2021/06/06 05:04:23;;;;;;;10.73;7.70;;;15.50;99.90;;;;;;5092754;28;20201;-73
2021/06/06 05:07:10;;;;;;;12.90;8.07;;;15.70;99.90;;;;;;5093448;28;20594;-74
2021/06/06 05:09:58;;;;;;;16.20;9.67;;;15.80;99.90;;;;;;5093616;28;20195;-74
2021/06/06 05:12:45;;;;;;;14.53;9.00;;;15.90;99.90;;;;;;5090640;28;20645;-74
2021/06/06 05:15:32;;;;;;;11.67;8.20;;;16.10;99.90;;;;;;5092682;28;20227;-73
2021/06/06 05:18:20;;;;;;;11.83;8.27;;;16.20;99.90;;;;;;5091102;28;20603;-73
2021/06/06 05:21:08;;;;;;;11.47;8.17;;;16.30;99.90;;;;;;5079304;28;20200;-74
2021/06/06 05:23:55;;;;;;;10.93;7.87;;;16.40;99.90;;;;;;5063294;28;20209;-74
2021/06/06 05:26:42;;;;;;;13.10;7.83;;;16.60;99.90;;;;;;5051859;28;20195;-73
2021/06/06 05:29:29;;;;;;;10.70;7.77;;;16.80;99.90;;;;;;5061086;28;20221;-72
2021/06/06 05:32:16;;;;;;;12.63;7.47;;;16.90;99.90;;;;;;5059610;28;20207;-72
2021/06/06 05:35:03;;;;;;;9.37;6.87;;;17.00;99.90;;;;;;5060734;28;20219;-72
2021/06/06 05:37:52;;;;;;;8.93;6.93;;;17.20;99.90;;;;;;5046051;28;20707;-72
2021/06/06 05:40:39;;;;;;;13.23;7.07;;;17.40;99.90;;;;;;5047086;28;20197;-72
2021/06/06 05:43:26;;;;;;;9.53;6.80;;;17.50;99.90;;;;;;5057059;28;20231;-72
2021/06/06 05:46:16;;;;;;;11.57;7.20;;;17.70;99.90;;;;;;5063663;28;20229;-72
2021/06/06 05:49:03;;;;;;;10.00;7.60;;;17.80;99.90;;;;;;5057636;28;20259;-72
2021/06/06 05:51:51;;;;;;;11.00;8.27;;;18.00;99.90;;;;;;5052648;28;20272;-72
2021/06/06 05:54:39;;;;;;;11.17;7.17;;;18.10;99.90;;;;;;5067361;28;20224;-72
2021/06/06 05:57:26;;;;;;;10.77;6.80;;;18.20;99.90;;;;;;5035665;28;20206;-72
2021/06/06 06:00:15;;;;;;;10.30;7.23;;;18.30;99.90;;;;;;5054284;28;20202;-72
2021/06/06 06:03:02;;;;;;;8.80;6.90;;;18.50;99.90;;;;;;5046152;28;20197;-72
2021/06/06 06:05:51;;;;;;;10.60;6.53;;;18.60;99.90;;;;;;5070747;28;20208;-72
2021/06/06 06:08:40;;;;;;;10.33;6.70;;;18.70;99.90;;;;;;5052449;28;20253;-72
2021/06/06 06:11:29;;;;;;;8.80;7.03;;;18.80;99.90;;;;;;5053038;28;20203;-72
2021/06/06 06:14:16;;;;;;;9.73;6.90;;;18.90;99.90;;;;;;5052377;28;20235;-72
2021/06/06 06:17:03;;;;;;;8.20;6.60;;;19.10;99.90;;;;;;5053361;28;20300;-72
2021/06/06 06:19:51;;;;;;;9.00;7.20;;;19.30;99.90;;;;;;5070057;28;20222;-72
2021/06/06 06:22:38;;;;;;;10.83;6.90;;;19.40;99.90;;;;;;5083115;28;20256;-72
2021/06/06 06:25:25;;;;;;;12.10;7.27;;;19.60;99.90;;;;;;5082005;28;20229;-72
2021/06/06 06:28:14;;;;;;;10.37;7.20;;;19.70;99.90;;;;;;5067326;28;20215;-72
2021/06/06 06:31:01;;;;;;;11.47;7.50;;;19.80;99.90;;;;;;5089391;28;20203;-72
2021/06/06 06:33:48;;;;;;;11.27;8.27;;;19.90;99.90;;;;;;5090878;28;20251;-72
2021/06/06 06:36:35;;;;;;;8.97;6.17;;;20.00;99.90;;;;;;5066640;28;20207;-72
2021/06/06 06:39:23;;;;;;;6.03;5.37;;;19.90;99.90;;;;;;5089851;28;20241;-72
2021/06/06 06:42:10;;;;;;;9.77;7.43;;;19.80;99.90;;;;;;5080098;28;20211;-72
2021/06/06 06:44:59;;;;;;;10.77;8.00;;;19.90;99.90;;;;;;5072656;28;20195;-72
2021/06/06 06:47:46;;;;;;;9.23;7.00;;;19.90;99.90;;;;;;5072527;28;20227;-71
2021/06/06 06:50:33;;;;;;;12.80;8.03;;;19.90;99.90;;;;;;5072811;28;20563;-72
2021/06/06 06:53:20;;;;;;;13.40;7.70;;;20.10;99.90;;;;;;5076458;28;20196;-72
2021/06/06 06:56:08;;;;;;;13.37;7.87;;;20.20;99.90;;;;;;5075721;28;20208;-72
2021/06/06 06:58:55;;;;;;;5.40;4.10;;;20.50;99.90;;;;;;5076189;28;20241;-72
2021/06/06 07:01:44;;;;;;;4.93;4.07;;;20.60;99.90;;;;;;5075463;28;20206;-72
2021/06/06 07:04:31;;;;;;;5.57;4.40;;;20.70;99.90;;;;;;5076153;28;20198;-73
2021/06/06 07:07:19;;;;;;;5.73;4.10;;;21.10;99.90;;;;;;5075075;28;20211;-72
2021/06/06 07:10:06;;;;;;;5.30;4.07;;;21.50;99.90;;;;;;5075696;28;20617;-72
2021/06/06 07:12:54;;;;;;;8.20;3.90;;;21.70;99.90;;;;;;5075681;28;20707;-72
2021/06/06 07:15:41;;;;;;;5.80;4.57;;;21.60;99.90;;;;;;5075128;28;20211;-72
2021/06/06 07:18:30;;;;;;;4.87;4.00;;;21.40;99.90;;;;;;5075856;28;20283;-72
2021/06/06 07:21:18;;;;;;;5.30;4.27;;;21.20;99.90;;;;;;5074894;28;20254;-72
2021/06/06 07:24:06;;;;;;;5.13;4.40;;;21.20;99.90;;;;;;5055362;28;20197;-72
2021/06/06 07:26:54;;;;;;;8.73;4.13;;;21.50;99.90;;;;;;5055477;28;20198;-72
2021/06/06 07:29:41;;;;;;;6.77;4.20;;;21.70;99.90;;;;;;5054578;28;20228;-72
2021/06/06 07:32:28;;;;;;;6.73;4.50;;;22.10;99.90;;;;;;5055124;28;20204;-72
2021/06/06 07:35:21;;;;;;;5.20;3.77;;;22.40;99.90;;;;;;5055683;28;20193;-72
2021/06/06 07:38:08;;;;;;;6.87;4.20;;;22.70;99.90;;;;;;5054981;28;20186;-72
2021/06/06 07:40:56;;;;;;;5.23;3.97;;;22.50;99.90;;;;;;5055086;28;20201;-72
2021/06/06 07:43:43;;;;;;;5.20;3.67;;;22.80;99.90;;;;;;5054849;28;20205;-72
2021/06/06 07:46:30;;;;;;;5.57;3.57;;;23.10;99.90;;;;;;5055363;28;20331;-72
2021/06/06 07:49:18;;;;;;;4.27;3.53;;;23.20;99.90;;;;;;5054984;28;20244;-72
2021/06/06 07:52:07;;;;;;;7.73;3.97;;;23.50;99.90;;;;;;5055039;28;20229;-72
2021/06/06 07:54:54;;;;;;;4.97;3.40;;;24.00;99.90;;;;;;5054400;28;20201;-72
2021/06/06 07:57:41;;;;;;;5.73;3.50;;;24.30;99.90;;;;;;5053804;28;20288;-72
2021/06/06 08:00:29;;;;;;;6.37;4.00;;;24.40;99.90;;;;;;5054467;28;20193;-72
2021/06/06 08:03:17;;;;;;;5.43;3.63;;;24.60;99.90;;;;;;5054553;28;20280;-72
2021/06/06 08:06:05;;;;;;;5.53;3.67;;;24.60;99.90;;;;;;5054689;28;20236;-72
2021/06/06 08:08:54;;;;;;;6.70;3.73;;;24.60;99.90;;;;;;5053717;28;20240;-72
2021/06/06 08:11:41;;;;;;;5.43;3.83;;;24.70;99.40;;;;;;5054221;28;20288;-72
2021/06/06 08:14:29;;;;;;;5.60;3.63;;;24.60;97.80;;;;;;5054125;28;20600;-72
2021/06/06 08:17:16;;;;;;;6.10;3.43;;;24.70;98.60;;;;;;5054509;28;20205;-72
2021/06/06 08:20:04;;;;;;;3.90;3.47;;;24.80;98.40;;;;;;5054444;28;20731;-72
2021/06/06 08:22:52;;;;;;;5.37;3.70;;;24.70;97.10;;;;;;5067078;28;20289;-72
2021/06/06 08:25:40;;;;;;;5.73;3.20;;;24.80;95.70;;;;;;5074857;28;20201;-72
2021/06/06 08:28:28;;;;;;;5.67;3.50;;;24.90;96.00;;;;;;5073479;28;20213;-73
2021/06/06 08:31:17;;;;;;;4.90;3.80;;;24.90;93.60;;;;;;5074902;28;20658;-73
2021/06/06 08:34:04;;;;;;;5.67;4.00;;;25.00;94.60;;;;;;5074127;28;20197;-73
2021/06/06 08:36:51;;;;;;;8.60;4.60;;;25.20;95.70;;;;;;5074585;28;20250;-72
2021/06/06 08:39:38;;;;;;;5.28;4.22;;;25.20;94.30;;;;;;5074193;28;20203;-72
2021/06/06 08:42:30;;;;;;;4.30;3.43;;;25.30;94.20;;;;;;5073055;28;20196;-72
2021/06/06 08:45:24;;;;;;;4.70;3.50;;;25.20;91.30;;;;;;5073801;28;20208;-72
2021/06/06 08:48:11;;;;;;;3.80;3.37;;;25.30;91.50;;;;;;5074168;28;20217;-72
2021/06/06 08:51:10;;;;;;;4.80;3.33;;;25.50;91.00;;;;;;5074085;28;20222;-72
2021/06/06 08:54:03;;;;;;;4.35;3.20;;;25.80;90.80;;;;;;5073099;28;20247;-72
2021/06/06 08:56:53;;;;;;;3.20;2.90;;;25.70;90.00;;;;;;5073033;28;20204;-72
2021/06/06 08:59:46;;;;;;;4.35;3.58;;;25.80;86.90;;;;;;5074129;28;20196;-72
2021/06/06 09:02:35;;;;;;;7.50;3.40;;;25.80;86.00;;;;;;5073270;28;20284;-73
2021/06/06 09:05:26;;;;;;;3.40;3.03;;;25.80;86.50;;;;;;5073771;28;20283;-73
2021/06/06 09:08:16;;;;;;;3.97;3.58;;;25.80;85.60;;;;;;5072669;28;20231;-73
2021/06/06 09:11:06;;;;;;;5.18;3.95;;;25.80;84.50;;;;;;5072714;28;20652;-72
2021/06/06 09:13:55;;;;;;;6.22;3.90;;;25.70;85.40;;;;;;5072848;28;20196;-72
2021/06/06 09:16:58;;;;;;;4.65;3.47;;;25.90;85.90;;;;;;5072598;28;20257;-72
2021/06/06 09:19:47;;;;;;;4.55;3.58;;;26.00;86.60;;;;;;5073599;28;20525;-72
2021/06/06 09:22:37;;;;;;;8.20;3.88;;;26.40;87.80;;;;;;5073605;28;20232;-72
2021/06/06 09:25:28;;;;;;;5.78;3.10;;;26.10;84.70;;;;;;5073767;28;20201;-72
2021/06/06 09:28:20;;;;;;;6.78;3.17;;;26.00;85.30;;;;;;5072431;28;20270;-73
2021/06/06 09:31:09;;;;;;;4.80;3.58;;;26.30;86.20;;;;;;5073435;28;20197;-72
2021/06/06 09:34:02;;;;;;;7.90;3.20;;;26.40;84.20;;;;;;5073467;28;20234;-72
2021/06/06 09:37:02;;;;;;;4.45;3.03;;;26.50;84.30;;;;;;5072507;28;20228;-72
2021/06/06 09:39:57;;;;;;;3.80;2.75;;;26.90;83.80;;;;;;5072185;28;20231;-72
2021/06/06 09:42:46;;;;;;;3.90;3.00;;;27.20;77.70;;;;;;5073400;28;20203;-73
2021/06/06 09:45:35;;;;;;;3.88;2.90;;;26.70;77.80;;;;;;5073258;28;20287;-73
2021/06/06 09:48:24;;;;;;;5.20;2.67;;;26.70;77.30;;;;;;5072181;28;20247;-72
2021/06/06 09:51:15;;;;;;;3.75;2.80;;;27.00;75.30;;;;;;5073141;28;20196;-72
2021/06/06 09:54:10;;;;;;;2.92;2.55;;;27.30;75.10;;;;;;5072307;28;20196;-73
2021/06/06 09:56:59;;;;;;;4.70;3.00;;;27.30;74.20;;;;;;5071873;28;20196;-73
2021/06/06 09:59:46;;;;;;;6.00;2.67;;;26.60;73.50;;;;;;5073146;28;20275;-73
2021/06/06 10:02:37;;;;;;;3.58;2.67;;;26.60;71.10;;;;;;5073100;28;20203;-72
2021/06/06 10:05:28;;;;;;;4.15;2.97;;;26.40;75.30;;;;;;5072200;28;20643;-72
2021/06/06 10:08:21;;;;;;;3.92;2.90;;;27.00;74.90;;;;;;5072990;28;20290;-73
2021/06/06 10:11:10;;;;;;;5.25;2.60;;;27.40;73.60;;;;;;5071482;28;20232;-73
2021/06/06 10:13:57;;;;;;;3.42;2.78;;;27.00;70.60;;;;;;5071958;28;20200;-73
2021/06/06 10:16:45;;;;;;;4.07;2.95;;;26.90;74.90;;;;;;5072922;28;20542;-73
2021/06/06 10:19:34;;;;;;;2.92;2.63;;;27.00;73.40;;;;;;5071684;28;20216;-73
2021/06/06 10:22:24;;;;;;;3.33;2.55;;;27.00;72.60;;;;;;5077085;28;20228;-73
2021/06/06 10:25:16;;;;;;;7.80;2.92;;;27.20;71.10;;;;;;5077144;28;20663;-73
2021/06/06 10:28:05;;;;;;;2.83;2.30;;;27.50;73.70;;;;;;5075756;28;20269;-73
2021/06/06 10:31:00;;;;;;;3.15;2.63;;;27.60;71.60;;;;;;5076906;28;20527;-73
2021/06/06 10:33:51;;;;;;;3.53;2.40;;;27.70;69.50;;;;;;5071400;28;20226;-73
2021/06/06 10:36:40;;;;;;;4.20;2.53;;;27.00;67.90;;;;;;5071389;28;20220;-73
2021/06/06 10:39:37;;;;;;;5.47;2.47;;;26.50;68.60;;;;;;5076355;28;20199;-74
2021/06/06 10:42:29;;;;;;;3.90;2.72;;;26.00;70.70;;;;;;5075523;28;20196;-73
2021/06/06 10:45:20;;;;;;;3.55;2.70;;;26.10;72.70;;;;;;5075814;28;20201;-73
2021/06/06 10:48:11;;;;;;;3.67;2.67;;;26.50;71.30;;;;;;5076623;28;20227;-73
2021/06/06 10:51:08;;;;;;;5.63;2.58;;;27.10;72.20;;;;;;5075621;28;20200;-73
2021/06/06 10:53:57;;;;;;;3.28;2.33;;;27.40;68.30;;;;;;5075132;28;20200;-73
2021/06/06 10:56:53;;;;;;;4.47;2.47;;;27.90;65.20;;;;;;5075334;28;20197;-73
2021/06/06 10:59:46;;;;;;;4.30;2.20;;;28.10;65.50;;;;;;5076422;28;20548;-73
2021/06/06 11:02:35;;;;;;;4.95;2.75;;;28.20;65.40;;;;;;5076400;28;20196;-73
2021/06/06 11:05:39;;;;;;;5.72;2.35;;;28.40;66.50;;;;;;5076259;28;20200;-73
2021/06/06 11:08:41;;;;;;;4.80;2.45;;;28.70;65.80;;;;;;5074950;28;20212;-73
2021/06/06 11:11:30;;;;;;;4.45;2.63;;;28.70;63.80;;;;;;5076364;28;20204;-73
2021/06/06 11:14:18;;;;;;;5.43;2.25;;;28.90;62.00;;;;;;5075391;28;20607;-73
2021/06/06 11:17:13;;;;;;;4.05;2.53;;;28.90;62.20;;;;;;5076218;28;20635;-73
2021/06/06 11:20:11;;;;;;;5.13;2.28;;;28.90;62.10;;;;;;5075883;28;20208;-73
2021/06/06 11:22:59;;;;;;;3.35;2.20;;;29.10;61.60;;;;;;5074695;28;20278;-73
2021/06/06 11:25:49;;;;;;;3.10;2.28;;;29.10;61.20;;;;;;5074776;28;20279;-73
2021/06/06 11:28:37;;;;;;;3.45;2.47;;;29.10;61.80;;;;;;5075886;28;20694;-73
2021/06/06 11:31:26;;;;;;;5.47;2.45;;;29.00;61.00;;;;;;5075261;28;20205;-73
2021/06/06 11:34:26;;;;;;;3.75;2.38;;;29.20;61.80;;;;;;5075714;28;20208;-73
2021/06/06 11:37:15;;;;;;;3.42;2.20;;;29.50;63.10;;;;;;5074988;28;20196;-73
2021/06/06 11:40:07;;;;;;;2.60;2.20;;;29.10;58.80;;;;;;5075419;28;20638;-73
2021/06/06 11:42:57;;;;;;;3.00;2.13;;;29.00;58.70;;;;;;5075669;28;20249;-73
2021/06/06 11:45:46;;;;;;;2.53;2.30;;;29.00;58.60;;;;;;5075322;28;20666;-73
2021/06/06 11:48:35;;;;;;;3.42;2.13;;;29.10;61.00;;;;;;5074528;28;20238;-73
2021/06/06 11:51:38;;;;;;;4.13;2.60;;;29.10;60.90;;;;;;5075530;28;20209;-73
2021/06/06 11:54:26;;;;;;;4.68;1.83;;;29.30;59.70;;;;;;5066309;28;20200;-73
2021/06/06 11:57:19;;;;;;;3.63;2.03;;;29.40;59.60;;;;;;5074120;28;20211;-73
2021/06/06 12:00:10;;;;;;;4.07;2.25;;;29.80;57.90;;;;;;5075135;28;20200;-73
2021/06/06 12:03:09;;;;;;;2.38;2.17;;;29.10;55.40;;;;;;5074976;28;20235;-73
2021/06/06 12:05:57;;;;;;;2.35;2.10;;;28.90;58.70;;;;;;5075232;28;20201;-73
2021/06/06 12:08:48;;;;;;;5.80;3.38;;;28.90;57.80;;;;;;5073858;28;20223;-73
2021/06/06 12:11:36;;;;;;;3.70;1.90;;;29.30;57.60;;;;;;5074231;28;20200;-73
2021/06/06 12:14:28;;;;;;;1.90;1.80;;;29.40;56.70;;;;;;5075212;28;20205;-73
2021/06/06 12:17:21;;;;;;;4.78;2.05;;;29.70;57.20;;;;;;5073878;28;20675;-72
2021/06/06 12:20:12;;;;;;;2.40;1.95;;;30.10;57.40;;;;;;5073519;28;20279;-73
2021/06/06 12:23:10;;;;;;;3.15;1.98;;;29.50;54.40;;;;;;5073440;28;20233;-73
2021/06/06 12:26:07;;;;;;;3.78;1.85;;;29.50;54.90;;;;;;5074834;28;20218;-72
2021/06/06 12:28:56;;;;;;;2.20;1.77;;;29.40;56.60;;;;;;5073826;28;20216;-72
2021/06/06 12:31:45;;;;;;;3.25;2.08;;;29.80;55.70;;;;;;5074559;28;20205;-72
2021/06/06 12:34:43;;;;;;;2.35;1.90;;;30.40;54.00;;;;;;5073443;28;20196;-72
2021/06/06 12:37:35;;;;;;;3.78;1.95;;;30.00;52.80;;;;;;5072947;28;20664;-73
2021/06/06 12:40:27;;;;;;;2.10;1.90;;;30.20;53.00;;;;;;5073544;28;20843;-73
2021/06/06 12:43:22;;;;;;;5.30;4.50;;;29.80;53.70;;;;;;5035654;28;20284;-73
2021/06/06 12:46:09;;;;;;;6.28;2.40;;;30.10;55.60;;;;;;5073586;28;20273;-73
2021/06/06 12:48:59;;;;;;;3.20;1.95;;;30.20;52.00;;;;;;5073122;28;20247;-73
2021/06/06 12:51:49;;;;;;;2.78;1.90;;;30.60;52.80;;;;;;5073579;28;20678;-73
2021/06/06 12:54:39;;;;;;;3.75;2.10;;;30.70;52.00;;;;;;5073081;28;20275;-73
2021/06/06 12:57:28;;;;;;;2.17;1.98;;;30.60;51.40;;;;;;5074197;28;20205;-73
2021/06/06 13:00:22;;;;;;;8.57;2.00;;;30.30;52.80;;;;;;5074161;28;20201;-73
2021/06/06 13:03:30;;;;;;;2.72;1.98;;;30.30;51.70;;;;;;5073413;28;20690;-73
2021/06/06 13:06:33;;;;;;;4.50;2.00;;;30.40;53.00;;;;;;5073802;28;20549;-73
2021/06/06 13:09:26;;;;;;;2.40;1.73;;;30.50;52.30;;;;;;5072910;28;20252;-73
2021/06/06 13:12:18;;;;;;;2.30;1.95;;;30.70;54.30;;;;;;5072800;28;20204;-73
2021/06/06 13:15:08;;;;;;;3.33;1.95;;;30.60;52.00;;;;;;5072855;28;20542;-73
2021/06/06 13:17:57;;;;;;;5.15;2.40;;;30.70;51.70;;;;;;5072357;28;20193;-72
2021/06/06 13:20:54;;;;;;;2.42;2.10;;;30.70;51.50;;;;;;5073546;28;20232;-73
2021/06/06 13:23:42;;;;;;;3.72;1.92;;;31.00;50.90;;;;;;5072406;28;20233;-72
2021/06/06 13:26:36;;;;;;;3.05;1.63;;;31.40;51.60;;;;;;5073511;28;20200;-73
2021/06/06 13:29:31;;;;;;;2.50;1.95;;;31.30;52.70;;;;;;5073782;28;20216;-72
2021/06/06 13:32:20;;;;;;;2.53;1.85;;;31.10;50.00;;;;;;5054429;28;20296;-75
2021/06/06 13:35:09;;;;;;;2.72;2.00;;;30.70;50.20;;;;;;5072803;28;20193;-74
2021/06/06 13:37:57;;;;;;;2.28;1.50;;;30.40;50.30;;;;;;5072307;28;20197;-74
2021/06/06 13:40:46;;;;;;;4.53;1.55;;;30.40;50.10;;;;;;5072055;28;20250;-73
2021/06/06 13:43:34;;;;;;;5.70;1.90;;;30.30;48.90;;;;;;5073364;28;20242;-73
2021/06/06 13:46:21;;;;;;;2.63;1.65;;;30.50;49.60;;;;;;5072513;28;20220;-73
2021/06/06 13:49:09;;;;;;;1.75;1.63;;;30.90;51.10;;;;;;5072954;28;20243;-73
2021/06/06 13:51:58;;;;;;;2.25;1.75;;;31.50;51.40;;;;;;5072507;28;20228;-73
2021/06/06 13:54:45;;;;;;;3.80;1.52;;;31.60;49.60;;;;;;5072735;28;20228;-73
2021/06/06 13:57:33;;;;;;;3.38;1.50;;;31.50;48.20;;;;;;5073009;28;20196;-74
2021/06/06 14:00:21;;;;;;;2.33;1.70;;;31.20;48.20;;;;;;5071848;28;20674;-73
2021/06/06 14:03:10;;;;;;;3.30;1.77;;;31.40;47.60;;;;;;5071594;28;20554;-73
2021/06/06 14:05:57;;;;;;;2.35;1.63;;;31.70;48.20;;;;;;5072938;28;20322;-73
2021/06/06 14:08:46;;;;;;;2.28;2.00;;;31.40;48.40;;;;;;5073034;28;20216;-73
2021/06/06 14:11:35;;;;;;;2.75;1.88;;;31.30;48.30;;;;;;5073116;28;20662;-73
2021/06/06 14:14:22;;;;;;;3.50;1.55;;;31.20;47.50;;;;;;5081747;28;20249;-74
2021/06/06 14:17:11;;;;;;;2.05;1.83;;;30.80;47.70;;;;;;5092560;28;20207;-73
2021/06/06 14:19:58;;;;;;;2.28;1.70;;;30.80;47.90;;;;;;5080837;28;20857;-72
2021/06/06 14:22:46;;;;;;;1.70;1.60;;;31.00;49.50;;;;;;5072810;28;20759;-73
2021/06/06 14:25:35;;;;;;;1.88;1.60;;;31.40;47.60;;;;;;5084062;28;20196;-73
2021/06/06 14:28:24;;;;;;;3.08;1.75;;;31.50;47.70;;;;;;5066491;28;20326;-73
2021/06/06 14:31:11;;;;;;;2.97;1.63;;;31.70;47.80;;;;;;5081671;28;20253;-73
2021/06/06 14:33:58;;;;;;;2.60;1.60;;;31.70;47.80;;;;;;5068248;28;20215;-73
2021/06/06 14:36:47;;;;;;;3.88;1.67;;;31.50;48.80;;;;;;5072929;28;20205;-74